createdAt,value
2019-03-04T00:00:30.091Z,6.60
2019-03-04T00:01:30.063Z,5.50
2019-03-04T00:02:30.037Z,7.20
2019-03-04T00:03:30.009Z,5.30
2019-03-04T00:04:29.982Z,6.10
2019-03-04T00:05:29.954Z,5.40
2019-03-04T00:06:29.929Z,6.10
2019-03-04T00:07:29.899Z,7.10
2019-03-04T00:08:29.872Z,8.00
2019-03-04T00:09:29.845Z,8.00
2019-03-04T00:10:29.819Z,6.70
2019-03-04T00:11:29.790Z,6.60
2019-03-04T00:12:29.765Z,5.70
2019-03-04T00:13:29.738Z,6.90
2019-03-04T00:14:29.708Z,8.80
2019-03-04T00:15:29.680Z,6.00
2019-03-04T00:16:29.654Z,6.90
2019-03-04T00:17:29.625Z,5.80
2019-03-04T00:18:29.598Z,5.40
2019-03-04T00:19:29.572Z,5.50
2019-03-04T00:20:29.542Z,7.30
2019-03-04T00:21:29.515Z,6.40
2019-03-04T00:22:29.488Z,6.40
2019-03-04T00:23:29.460Z,6.10
2019-03-04T00:24:29.433Z,5.10
2019-03-04T00:25:29.406Z,6.00
2019-03-04T00:26:29.380Z,6.60
2019-03-04T00:27:29.350Z,7.40
2019-03-04T00:28:29.325Z,5.90
2019-03-04T00:29:29.297Z,7.20
2019-03-04T00:30:29.291Z,4.60
2019-03-04T00:31:29.239Z,5.70
2019-03-04T00:32:29.213Z,6.00
2019-03-04T00:33:29.186Z,6.20
2019-03-04T00:34:29.159Z,9.20
2019-03-04T00:35:29.134Z,5.40
2019-03-04T00:36:29.102Z,11.40
2019-03-04T00:37:29.076Z,7.20
2019-03-04T00:38:29.048Z,9.90
2019-03-04T00:39:29.021Z,5.70
2019-03-04T00:40:28.995Z,6.50
2019-03-04T00:41:28.967Z,5.50
2019-03-04T00:42:28.939Z,6.10
2019-03-04T00:43:28.911Z,8.90
2019-03-04T00:44:28.883Z,5.40
2019-03-04T00:45:28.861Z,6.30
2019-03-04T00:46:28.830Z,5.30
2019-03-04T00:47:28.801Z,8.50
2019-03-04T00:48:28.776Z,7.20
2019-03-04T00:49:28.750Z,7.20
2019-03-04T00:50:28.721Z,5.20
2019-03-04T00:51:28.692Z,7.10
2019-03-04T00:52:28.673Z,6.40
2019-03-04T00:53:28.637Z,8.30
2019-03-04T00:54:28.610Z,8.30
2019-03-04T00:55:28.583Z,6.70
2019-03-04T00:56:28.555Z,5.60
2019-03-04T00:57:28.528Z,7.40
2019-03-04T00:58:28.502Z,6.50
2019-03-04T00:59:28.480Z,6.40
2019-03-04T01:00:28.445Z,7.40
2019-03-04T01:01:28.417Z,7.50
2019-03-04T01:02:28.393Z,7.50
2019-03-04T01:03:28.365Z,8.00
2019-03-04T01:04:28.334Z,4.90
2019-03-04T01:05:28.308Z,6.80
2019-03-04T01:06:28.281Z,5.30
2019-03-04T01:07:28.252Z,8.00
2019-03-04T01:08:28.225Z,6.40
2019-03-04T01:09:28.197Z,7.40
2019-03-04T01:10:28.171Z,6.10
2019-03-04T01:11:28.140Z,5.70
2019-03-04T01:12:28.114Z,4.60
2019-03-04T01:13:28.088Z,5.30
2019-03-04T01:14:28.058Z,5.00
2019-03-04T01:15:28.032Z,5.40
2019-03-04T01:16:28.003Z,5.70
2019-03-04T01:17:27.978Z,5.90
2019-03-04T01:18:27.948Z,6.80
2019-03-04T01:19:27.919Z,5.10
2019-03-04T01:20:27.892Z,5.40
2019-03-04T01:21:27.864Z,5.60
2019-03-04T01:22:27.835Z,6.90
2019-03-04T01:23:27.807Z,5.70
2019-03-04T01:24:27.780Z,5.80
2019-03-04T01:25:27.752Z,6.20
2019-03-04T01:26:27.725Z,6.50
2019-03-04T01:27:27.695Z,6.30
2019-03-04T01:28:27.669Z,5.70
2019-03-04T01:29:27.640Z,5.70
2019-03-04T01:30:27.613Z,6.20
2019-03-04T01:31:27.583Z,4.90
2019-03-04T01:32:27.558Z,5.40
2019-03-04T01:33:27.531Z,5.40
2019-03-04T01:34:27.503Z,5.40
2019-03-04T01:35:27.474Z,6.20
2019-03-04T01:36:27.445Z,5.30
2019-03-04T01:37:27.417Z,5.80
2019-03-04T01:38:27.393Z,5.00
2019-03-04T01:39:27.361Z,5.80
2019-03-04T01:40:27.333Z,5.20
2019-03-04T01:41:27.305Z,5.30
2019-03-04T01:42:27.279Z,5.90
2019-03-04T01:43:27.251Z,5.00
2019-03-04T01:44:27.220Z,5.10
2019-03-04T01:45:27.194Z,4.70
2019-03-04T01:46:27.166Z,5.50
2019-03-04T01:47:27.138Z,4.80
2019-03-04T01:48:27.110Z,4.50
2019-03-04T01:49:27.083Z,5.10
2019-03-04T01:50:27.057Z,5.00
2019-03-04T01:51:27.026Z,5.40
2019-03-04T01:52:26.998Z,5.80
2019-03-04T01:53:26.971Z,5.40
2019-03-04T01:54:28.161Z,4.80
2019-03-04T01:55:26.914Z,5.20
2019-03-04T01:56:26.899Z,5.40
2019-03-04T01:57:26.865Z,5.20
2019-03-04T01:58:26.836Z,4.90
2019-03-04T01:59:26.806Z,4.90
2019-03-04T02:00:26.778Z,5.10
2019-03-04T02:01:26.749Z,4.90
2019-03-04T02:02:26.722Z,4.40
2019-03-04T02:03:26.720Z,5.20
2019-03-04T02:04:26.667Z,5.20
2019-03-04T02:05:26.640Z,4.90
2019-03-04T02:06:26.611Z,3.90
2019-03-04T02:07:26.583Z,5.20
2019-03-04T02:08:26.556Z,4.90
2019-03-04T02:09:26.529Z,5.10
2019-03-04T02:10:26.500Z,5.30
2019-03-04T02:11:26.472Z,5.80
2019-03-04T02:12:26.444Z,4.70
2019-03-04T02:13:26.418Z,5.40
2019-03-04T02:14:26.396Z,4.50
2019-03-04T02:15:26.361Z,4.90
2019-03-04T02:16:26.336Z,4.80
2019-03-04T02:17:26.310Z,4.60
2019-03-04T02:18:26.280Z,4.60
2019-03-04T02:19:26.252Z,4.70
2019-03-04T02:20:26.225Z,4.90
2019-03-04T02:21:26.198Z,4.60
2019-03-04T02:22:26.171Z,4.40
2019-03-04T02:23:26.148Z,4.70
2019-03-04T02:24:26.115Z,4.40
2019-03-04T02:25:26.088Z,4.80
2019-03-04T02:26:26.064Z,4.30
2019-03-04T02:27:26.033Z,4.40
2019-03-04T02:28:26.006Z,4.40
2019-03-04T02:29:25.978Z,4.80
2019-03-04T02:30:25.952Z,4.10
2019-03-04T02:31:25.925Z,4.00
2019-03-04T02:32:25.896Z,4.80
2019-03-04T02:33:25.875Z,4.30
2019-03-04T02:34:25.841Z,4.60
2019-03-04T02:35:25.825Z,4.60
2019-03-04T02:36:25.788Z,4.20
2019-03-04T02:37:25.760Z,4.30
2019-03-04T02:38:25.746Z,4.90
2019-03-04T02:39:25.707Z,3.90
2019-03-04T02:40:25.680Z,4.50
2019-03-04T02:41:25.652Z,4.00
2019-03-04T02:42:25.631Z,4.00
2019-03-04T02:43:25.598Z,3.80
2019-03-04T02:44:25.573Z,4.50
2019-03-04T02:45:25.542Z,4.00
2019-03-04T02:46:25.516Z,4.20
2019-03-04T02:47:25.487Z,3.90
2019-03-04T02:48:25.460Z,3.80
2019-03-04T02:49:25.469Z,4.10
2019-03-04T02:50:25.407Z,4.10
2019-03-04T02:51:25.380Z,3.80
2019-03-04T02:52:25.352Z,3.90
2019-03-04T02:53:25.325Z,3.70
2019-03-04T02:54:25.298Z,4.30
2019-03-04T02:55:25.271Z,4.00
2019-03-04T02:56:25.245Z,3.60
2019-03-04T02:57:25.216Z,3.70
2019-03-04T02:58:25.193Z,4.00
2019-03-04T02:59:25.161Z,4.50
2019-03-04T03:00:25.137Z,4.30
2019-03-04T03:01:25.114Z,4.00
2019-03-04T03:02:25.146Z,4.10
2019-03-04T03:03:25.059Z,4.00
2019-03-04T03:04:25.024Z,3.70
2019-03-04T03:05:24.998Z,4.10
2019-03-04T03:06:24.973Z,3.70
2019-03-04T03:07:24.946Z,4.20
2019-03-04T03:08:24.928Z,3.90
2019-03-04T03:09:24.890Z,4.30
2019-03-04T03:10:24.864Z,3.90
2019-03-04T03:11:24.835Z,4.20
2019-03-04T03:12:24.811Z,4.10
2019-03-04T03:13:24.781Z,3.60
2019-03-04T03:14:24.753Z,4.10
2019-03-04T03:15:24.730Z,3.60
2019-03-04T03:16:24.701Z,3.90
2019-03-04T03:17:24.677Z,3.50
2019-03-04T03:18:24.647Z,3.70
2019-03-04T03:19:24.625Z,3.70
2019-03-04T03:20:24.591Z,3.50
2019-03-04T03:21:24.565Z,3.50
2019-03-04T03:22:24.538Z,3.50
2019-03-04T03:23:24.511Z,4.20
2019-03-04T03:24:24.489Z,3.60
2019-03-04T03:25:24.464Z,4.40
2019-03-04T03:26:24.428Z,4.00
2019-03-04T03:27:24.402Z,3.80
2019-03-04T03:28:24.373Z,4.30
2019-03-04T03:29:24.348Z,3.70
2019-03-04T03:30:24.360Z,4.00
2019-03-04T03:31:24.293Z,3.90
2019-03-04T03:32:24.269Z,3.60
2019-03-04T03:33:24.243Z,3.90
2019-03-04T03:34:24.225Z,4.00
2019-03-04T03:35:24.186Z,2.90
2019-03-04T03:36:24.159Z,3.60
2019-03-04T03:37:24.132Z,3.80
2019-03-04T03:38:24.108Z,3.40
2019-03-04T03:39:24.075Z,3.40
2019-03-04T03:40:24.050Z,3.60
2019-03-04T03:41:24.030Z,4.10
2019-03-04T03:42:23.997Z,3.50
2019-03-04T03:43:23.971Z,3.60
2019-03-04T03:44:23.946Z,3.90
2019-03-04T03:45:23.921Z,3.60
2019-03-04T03:46:23.887Z,3.40
2019-03-04T03:47:23.861Z,3.50
2019-03-04T03:48:23.834Z,3.40
2019-03-04T03:49:23.811Z,3.30
2019-03-04T03:50:23.783Z,4.30
2019-03-04T03:51:23.753Z,3.50
2019-03-04T03:52:23.728Z,3.40
2019-03-04T03:53:23.701Z,3.40
2019-03-04T03:54:23.674Z,3.50
2019-03-04T03:55:23.649Z,3.80
2019-03-04T03:56:23.619Z,3.40
2019-03-04T03:57:23.593Z,4.00
2019-03-04T03:58:25.299Z,3.60
2019-03-04T03:59:23.539Z,3.70
2019-03-04T04:00:23.521Z,3.80
2019-03-04T04:01:23.486Z,3.60
2019-03-04T04:02:23.459Z,3.40
2019-03-04T04:03:23.434Z,2.80
2019-03-04T04:04:23.407Z,3.40
2019-03-04T04:05:23.383Z,3.20
2019-03-04T04:06:23.352Z,3.40
2019-03-04T04:07:23.326Z,3.30
2019-03-04T04:08:23.300Z,3.60
2019-03-04T04:09:23.274Z,3.00
2019-03-04T04:10:23.246Z,2.90
2019-03-04T04:11:23.225Z,3.60
2019-03-04T04:12:23.193Z,3.40
2019-03-04T04:13:23.169Z,3.10
2019-03-04T04:14:23.166Z,3.60
2019-03-04T04:15:23.113Z,3.40
2019-03-04T04:16:23.087Z,3.60
2019-03-04T04:17:23.065Z,3.10
2019-03-04T04:18:23.033Z,3.80
2019-03-04T04:19:23.005Z,3.30
2019-03-04T04:20:22.978Z,3.30
2019-03-04T04:21:22.952Z,3.30
2019-03-04T04:22:22.927Z,3.20
2019-03-04T04:23:22.901Z,3.30
2019-03-04T04:24:22.874Z,3.90
2019-03-04T04:25:22.847Z,3.50
2019-03-04T04:26:22.827Z,3.50
2019-03-04T04:27:22.793Z,3.40
2019-03-04T04:28:22.767Z,3.10
2019-03-04T04:29:22.745Z,3.40
2019-03-04T04:30:22.715Z,3.50
2019-03-04T04:31:22.687Z,3.20
2019-03-04T04:32:22.661Z,3.60
2019-03-04T04:33:22.634Z,3.20
2019-03-04T04:34:22.609Z,3.40
2019-03-04T04:35:22.582Z,3.10
2019-03-04T04:36:22.556Z,2.70
2019-03-04T04:37:22.528Z,3.10
2019-03-04T04:38:22.502Z,3.10
2019-03-04T04:39:22.476Z,3.40
2019-03-04T04:40:22.450Z,3.30
2019-03-04T04:41:22.422Z,3.40
2019-03-04T04:42:22.397Z,3.70
2019-03-04T04:43:22.368Z,3.40
2019-03-04T04:44:22.347Z,3.40
2019-03-04T04:45:22.316Z,3.50
2019-03-04T04:46:22.289Z,3.60
2019-03-04T04:47:22.261Z,3.60
2019-03-04T04:48:22.235Z,3.40
2019-03-04T04:49:22.208Z,3.40
2019-03-04T04:50:22.187Z,3.30
2019-03-04T04:51:22.154Z,2.90
2019-03-04T04:52:23.329Z,3.30
2019-03-04T04:53:22.103Z,2.80
2019-03-04T04:54:22.075Z,3.30
2019-03-04T04:55:22.047Z,3.40
2019-03-04T04:56:22.022Z,2.90
2019-03-04T04:57:21.997Z,3.00
2019-03-04T04:58:21.970Z,3.20
2019-03-04T04:59:21.942Z,3.20
2019-03-04T05:00:21.915Z,3.70
2019-03-04T05:01:21.889Z,4.70
2019-03-04T05:02:21.862Z,3.90
2019-03-04T05:03:21.834Z,4.40
2019-03-04T05:04:21.808Z,5.40
2019-03-04T05:05:21.782Z,3.80
2019-03-04T05:06:21.758Z,3.60
2019-03-04T05:07:21.729Z,4.60
2019-03-04T05:08:21.701Z,4.50
2019-03-04T05:09:21.675Z,4.00
2019-03-04T05:10:21.649Z,3.60
2019-03-04T05:11:21.621Z,3.90
2019-03-04T05:12:21.594Z,4.50
2019-03-04T05:13:21.573Z,3.80
2019-03-04T05:14:21.545Z,3.90
2019-03-04T05:15:21.512Z,4.40
2019-03-04T05:16:21.489Z,3.40
2019-03-04T05:17:21.461Z,5.20
2019-03-04T05:18:21.436Z,5.80
2019-03-04T05:19:21.408Z,5.10
2019-03-04T05:20:21.381Z,4.80
2019-03-04T05:21:21.354Z,4.10
2019-03-04T05:22:21.327Z,5.40
2019-03-04T05:23:21.300Z,4.60
2019-03-04T05:24:21.273Z,5.30
2019-03-04T05:25:21.247Z,6.30
2019-03-04T05:26:21.220Z,4.60
2019-03-04T05:27:21.194Z,3.80
2019-03-04T05:28:21.167Z,4.00
2019-03-04T05:29:21.139Z,5.50
2019-03-04T05:30:21.115Z,4.00
2019-03-04T05:31:21.086Z,3.90
2019-03-04T05:32:21.057Z,5.80
2019-03-04T05:33:21.032Z,4.40
2019-03-04T05:34:21.005Z,6.50
2019-03-04T05:35:20.977Z,4.00
2019-03-04T05:36:20.950Z,4.80
2019-03-04T05:37:20.924Z,7.30
2019-03-04T05:38:20.897Z,6.40
2019-03-04T05:39:20.872Z,6.80
2019-03-04T05:40:20.849Z,5.10
2019-03-04T05:41:20.819Z,5.80
2019-03-04T05:42:20.789Z,6.70
2019-03-04T05:43:20.761Z,5.50
2019-03-04T05:44:20.733Z,5.40
2019-03-04T05:45:20.711Z,5.80
2019-03-04T05:46:20.680Z,5.10
2019-03-04T05:47:20.652Z,9.80
2019-03-04T05:48:20.626Z,12.50
2019-03-04T05:49:20.598Z,6.80
2019-03-04T05:50:20.571Z,4.30
2019-03-04T05:51:20.541Z,9.50
2019-03-04T05:52:20.516Z,16.70
2019-03-04T05:53:20.491Z,14.70
2019-03-04T05:54:20.466Z,12.00
2019-03-04T05:55:20.435Z,6.50
2019-03-04T05:56:20.408Z,5.20
2019-03-04T05:57:20.381Z,11.60
2019-03-04T05:58:20.354Z,10.40
2019-03-04T05:59:20.347Z,9.70
2019-03-04T06:00:20.346Z,7.30
2019-03-04T06:01:20.273Z,8.30
2019-03-04T06:02:20.244Z,7.80
2019-03-04T06:03:20.217Z,11.60
2019-03-04T06:04:20.190Z,7.20
2019-03-04T06:05:20.172Z,12.10
2019-03-04T06:06:20.137Z,11.10
2019-03-04T06:07:20.107Z,5.20
2019-03-04T06:08:20.082Z,8.20
2019-03-04T06:09:20.054Z,5.50
2019-03-04T06:10:20.030Z,7.30
2019-03-04T06:11:19.998Z,6.30
2019-03-04T06:12:19.972Z,6.70
2019-03-04T06:13:19.945Z,7.80
2019-03-04T06:14:19.918Z,6.20
2019-03-04T06:15:19.891Z,6.70
2019-03-04T06:16:19.864Z,5.80
2019-03-04T06:17:19.887Z,7.80
2019-03-04T06:18:19.814Z,5.80
2019-03-04T06:19:19.780Z,11.20
2019-03-04T06:20:19.756Z,8.20
2019-03-04T06:21:19.726Z,11.70
2019-03-04T06:22:19.699Z,7.70
2019-03-04T06:23:19.671Z,5.20
2019-03-04T06:24:19.643Z,9.80
2019-03-04T06:25:19.617Z,7.30
2019-03-04T06:26:19.588Z,10.30
2019-03-04T06:27:19.562Z,9.40
2019-03-04T06:28:19.536Z,5.00
2019-03-04T06:29:19.510Z,5.70
2019-03-04T06:30:19.479Z,4.80
2019-03-04T06:31:19.452Z,8.50
2019-03-04T06:32:19.425Z,7.00
2019-03-04T06:33:19.408Z,4.40
2019-03-04T06:34:19.369Z,10.40
2019-03-04T06:35:19.342Z,14.40
2019-03-04T06:36:19.316Z,5.90
2019-03-04T06:37:19.288Z,9.70
2019-03-04T06:38:19.262Z,13.20
2019-03-04T06:39:19.232Z,4.30
2019-03-04T06:40:19.206Z,8.40
2019-03-04T06:41:19.179Z,6.80
2019-03-04T06:42:19.149Z,6.50
2019-03-04T06:43:19.122Z,10.00
2019-03-04T06:44:19.094Z,8.00
2019-03-04T06:45:19.068Z,12.50
2019-03-04T06:46:19.040Z,12.50
2019-03-04T06:47:19.012Z,8.00
2019-03-04T06:48:18.986Z,7.30
2019-03-04T06:49:18.963Z,16.50
2019-03-04T06:50:18.932Z,14.10
2019-03-04T06:51:18.906Z,11.30
2019-03-04T06:52:18.877Z,6.70
2019-03-04T06:53:18.853Z,13.50
2019-03-04T06:54:18.822Z,4.10
2019-03-04T06:55:18.795Z,3.60
2019-03-04T06:56:18.767Z,3.70
2019-03-04T06:57:27.868Z,4.00
2019-03-04T06:58:18.713Z,7.80
2019-03-04T06:59:18.685Z,3.80
2019-03-04T07:00:18.659Z,5.50
2019-03-04T07:01:18.631Z,5.10
2019-03-04T07:02:18.604Z,5.80
2019-03-04T07:03:18.576Z,3.70
2019-03-04T07:04:18.548Z,3.80
2019-03-04T07:05:18.523Z,3.80
2019-03-04T07:06:18.495Z,4.50
2019-03-04T07:07:18.469Z,4.60
2019-03-04T07:08:18.441Z,3.80
2019-03-04T07:09:18.414Z,3.90
2019-03-04T07:10:18.387Z,3.90
2019-03-04T07:11:18.359Z,3.20
2019-03-04T07:12:18.333Z,3.30
2019-03-04T07:13:18.305Z,3.50
2019-03-04T07:14:18.280Z,3.20
2019-03-04T07:15:18.252Z,3.50
2019-03-04T07:16:18.225Z,3.60
2019-03-04T07:17:18.196Z,2.90
2019-03-04T07:18:18.171Z,3.50
2019-03-04T07:19:18.144Z,3.40
2019-03-04T07:20:18.115Z,3.40
2019-03-04T07:21:18.088Z,2.90
2019-03-04T07:22:18.062Z,3.40
2019-03-04T07:23:18.035Z,3.00
2019-03-04T07:24:18.008Z,3.20
2019-03-04T07:25:17.986Z,3.40
2019-03-04T07:26:17.953Z,3.40
2019-03-04T07:27:17.928Z,3.20
2019-03-04T07:28:17.900Z,2.50
2019-03-04T07:29:17.875Z,2.80
2019-03-04T07:30:17.848Z,3.30
2019-03-04T07:31:17.821Z,2.90
2019-03-04T07:32:17.795Z,3.70
2019-03-04T07:33:17.768Z,3.20
2019-03-04T07:34:17.742Z,3.30
2019-03-04T07:35:17.715Z,3.60
2019-03-04T07:36:17.693Z,5.20
2019-03-04T07:37:17.666Z,6.10
2019-03-04T07:38:17.640Z,4.50
2019-03-04T07:39:17.614Z,4.00
2019-03-04T07:40:17.588Z,4.90
2019-03-04T07:41:17.564Z,3.20
2019-03-04T07:42:17.538Z,3.90
2019-03-04T07:43:17.512Z,3.40
2019-03-04T07:44:17.488Z,3.10
2019-03-04T07:45:17.465Z,2.90
2019-03-04T07:46:17.439Z,2.60
2019-03-04T07:47:17.415Z,2.80
2019-03-04T07:48:17.390Z,3.00
2019-03-04T07:49:17.361Z,3.00
2019-03-04T07:50:17.338Z,2.80
2019-03-04T07:51:17.313Z,2.80
2019-03-04T07:52:17.284Z,3.30
2019-03-04T07:53:19.071Z,2.70
2019-03-04T07:54:17.236Z,2.70
2019-03-04T07:55:17.225Z,2.60
2019-03-04T07:56:17.184Z,2.60
2019-03-04T07:57:17.159Z,2.80
2019-03-04T07:58:17.133Z,3.00
2019-03-04T07:59:17.108Z,3.10
2019-03-04T08:00:17.083Z,3.10
2019-03-04T08:01:17.057Z,3.10
2019-03-04T08:02:17.031Z,2.40
2019-03-04T08:03:17.005Z,2.90
2019-03-04T08:04:16.980Z,2.50
2019-03-04T08:05:16.955Z,2.40
2019-03-04T08:06:16.930Z,2.50
2019-03-04T08:07:16.904Z,2.60
2019-03-04T08:08:16.880Z,2.30
2019-03-04T08:09:16.854Z,2.50
2019-03-04T08:10:16.828Z,2.70
2019-03-04T08:11:16.807Z,2.40
2019-03-04T08:12:16.777Z,2.90
2019-03-04T08:13:16.754Z,2.60
2019-03-04T08:14:16.728Z,2.70
2019-03-04T08:15:16.701Z,2.60
2019-03-04T08:16:16.676Z,2.50
2019-03-04T08:17:16.651Z,2.60
2019-03-04T08:18:16.625Z,2.20
2019-03-04T08:19:16.650Z,2.60
2019-03-04T08:20:16.573Z,2.50
2019-03-04T08:21:16.547Z,2.80
2019-03-04T08:22:16.523Z,2.60
2019-03-04T08:23:16.496Z,2.60
2019-03-04T08:24:16.474Z,2.70
2019-03-04T08:25:16.444Z,2.30
2019-03-04T08:26:16.420Z,2.50
2019-03-04T08:27:16.395Z,2.40
2019-03-04T08:28:16.368Z,2.50
2019-03-04T08:29:16.342Z,2.40
2019-03-04T08:30:16.317Z,2.60
2019-03-04T08:31:16.291Z,2.40
2019-03-04T08:32:16.266Z,2.30
2019-03-04T08:33:16.240Z,2.30
2019-03-04T08:34:16.215Z,2.40
2019-03-04T08:35:16.192Z,2.10
2019-03-04T08:36:16.164Z,2.10
2019-03-04T08:37:16.141Z,2.10
2019-03-04T08:38:16.116Z,2.40
2019-03-04T08:39:16.091Z,2.20
2019-03-04T08:40:16.067Z,2.40
2019-03-04T08:41:16.044Z,2.10
2019-03-04T08:42:16.021Z,2.30
2019-03-04T08:43:15.998Z,2.10
2019-03-04T08:44:15.974Z,2.10
2019-03-04T08:45:15.951Z,2.10
2019-03-04T08:46:15.929Z,2.10
2019-03-04T08:47:15.902Z,2.40
2019-03-04T08:48:15.889Z,2.00
2019-03-04T08:49:15.855Z,2.20
2019-03-04T08:50:15.832Z,2.30
2019-03-04T08:51:15.809Z,2.30
2019-03-04T08:52:15.787Z,2.30
2019-03-04T08:53:15.766Z,2.20
2019-03-04T08:54:15.739Z,2.00
2019-03-04T08:55:15.718Z,2.00
2019-03-04T08:56:15.694Z,2.10
2019-03-04T08:57:15.673Z,2.20
2019-03-04T08:58:15.655Z,2.00
2019-03-04T08:59:15.631Z,1.80
2019-03-04T09:00:15.606Z,1.90
2019-03-04T09:01:15.584Z,1.90
2019-03-04T09:02:15.564Z,1.90
2019-03-04T09:03:15.538Z,2.10
2019-03-04T09:04:15.519Z,2.20
2019-03-04T09:05:15.544Z,1.70
2019-03-04T09:06:15.476Z,1.70
2019-03-04T09:07:15.455Z,1.70
2019-03-04T09:08:15.433Z,1.70
2019-03-04T09:09:15.411Z,1.60
2019-03-04T09:10:15.390Z,1.60
2019-03-04T09:11:15.369Z,1.50
2019-03-04T09:12:15.347Z,1.60
2019-03-04T09:13:15.329Z,1.60
2019-03-04T09:14:15.305Z,1.40
2019-03-04T09:15:15.284Z,1.20
2019-03-04T09:16:15.263Z,1.70
2019-03-04T09:17:15.242Z,1.80
2019-03-04T09:18:15.221Z,1.70
2019-03-04T09:19:15.199Z,1.60
2019-03-04T09:20:15.178Z,1.60
2019-03-04T09:21:15.158Z,1.60
2019-03-04T09:22:15.137Z,1.70
2019-03-04T09:23:15.115Z,1.70
2019-03-04T09:24:15.107Z,1.50
2019-03-04T09:25:15.071Z,1.80
2019-03-04T09:26:15.050Z,2.00
2019-03-04T09:27:15.029Z,1.80
2019-03-04T09:28:15.008Z,1.70
2019-03-04T09:29:14.985Z,1.70
2019-03-04T09:30:14.964Z,1.90
2019-03-04T09:31:14.940Z,2.10
2019-03-04T09:32:14.919Z,2.10
2019-03-04T09:33:14.900Z,1.90
2019-03-04T09:34:14.876Z,1.30
2019-03-04T09:35:14.854Z,1.70
2019-03-04T09:36:14.834Z,1.40
2019-03-04T09:37:14.806Z,2.20
2019-03-04T09:38:14.785Z,1.20
2019-03-04T09:39:14.759Z,1.70
2019-03-04T09:40:14.737Z,2.00
2019-03-04T09:41:14.713Z,1.80
2019-03-04T09:42:14.691Z,1.30
2019-03-04T09:43:14.665Z,1.30
2019-03-04T09:44:14.641Z,1.30
2019-03-04T09:45:14.615Z,1.30
2019-03-04T09:46:14.592Z,1.90
2019-03-04T09:47:14.566Z,1.50
2019-03-04T09:48:14.540Z,1.50
2019-03-04T09:49:14.514Z,1.60
2019-03-04T09:50:14.489Z,1.30
2019-03-04T09:51:23.804Z,2.20
2019-03-04T09:52:14.437Z,1.70
2019-03-04T09:53:14.410Z,1.30
2019-03-04T09:54:14.386Z,1.20
2019-03-04T09:55:14.359Z,1.30
2019-03-04T09:56:14.333Z,1.20
2019-03-04T09:57:14.305Z,1.20
2019-03-04T09:58:14.279Z,1.50
2019-03-04T09:59:14.250Z,1.10
2019-03-04T10:00:14.228Z,1.40
2019-03-04T10:01:14.199Z,1.10
2019-03-04T10:02:14.170Z,1.10
2019-03-04T10:03:14.145Z,1.10
2019-03-04T10:04:14.116Z,1.10
2019-03-04T10:05:14.090Z,1.00
2019-03-04T10:06:14.063Z,1.00
2019-03-04T10:07:14.036Z,1.10
2019-03-04T10:08:14.008Z,1.00
2019-03-04T10:09:13.981Z,1.00
2019-03-04T10:10:15.976Z,1.10
2019-03-04T10:11:13.927Z,1.00
2019-03-04T10:12:13.900Z,1.10
2019-03-04T10:13:13.872Z,1.10
2019-03-04T10:14:13.846Z,0.90
2019-03-04T10:15:13.817Z,0.90
2019-03-04T10:16:18.665Z,1.00
2019-03-04T10:17:13.762Z,1.00
2019-03-04T10:18:13.740Z,1.00
2019-03-04T10:19:13.709Z,1.30
2019-03-04T10:20:13.679Z,1.00
2019-03-04T10:21:13.651Z,1.20
2019-03-04T10:22:13.623Z,1.20
2019-03-04T10:23:13.596Z,0.90
2019-03-04T10:24:13.567Z,1.10
2019-03-04T10:25:13.542Z,1.10
2019-03-04T10:26:22.243Z,1.20
2019-03-04T10:27:13.484Z,1.00
2019-03-04T10:28:13.457Z,0.90
2019-03-04T10:29:13.429Z,0.90
2019-03-04T10:30:13.401Z,1.10
2019-03-04T10:31:13.375Z,1.00
2019-03-04T10:32:13.346Z,0.90
2019-03-04T10:33:13.320Z,0.90
2019-03-04T10:34:13.290Z,1.10
2019-03-04T10:35:13.264Z,0.80
2019-03-04T10:36:13.237Z,0.90
2019-03-04T10:37:13.209Z,1.00
2019-03-04T10:38:22.314Z,1.00
2019-03-04T10:39:13.151Z,1.40
2019-03-04T10:40:13.127Z,0.90
2019-03-04T10:41:13.096Z,1.20
2019-03-04T10:42:13.069Z,1.00
2019-03-04T10:43:13.075Z,1.00
2019-03-04T10:44:13.015Z,1.10
2019-03-04T10:45:12.987Z,1.30
2019-03-04T10:46:12.960Z,1.20
2019-03-04T10:47:12.933Z,1.10
2019-03-04T10:48:12.910Z,1.10
2019-03-04T10:49:12.878Z,1.20
2019-03-04T10:50:12.850Z,1.10
2019-03-04T10:51:12.821Z,1.00
2019-03-04T10:52:12.795Z,1.10
2019-03-04T10:53:12.768Z,1.10
2019-03-04T10:54:12.741Z,1.10
2019-03-04T10:55:12.712Z,1.40
2019-03-04T10:56:12.684Z,1.10
2019-03-04T10:57:12.657Z,1.10
2019-03-04T10:58:12.631Z,1.00
2019-03-04T10:59:12.602Z,1.00
2019-03-04T11:00:12.580Z,1.20
2019-03-04T11:01:12.548Z,1.30
2019-03-04T11:02:12.520Z,1.00
2019-03-04T11:03:12.493Z,1.00
2019-03-04T11:04:12.465Z,1.10
2019-03-04T11:05:12.440Z,1.10
2019-03-04T11:06:12.411Z,1.40
2019-03-04T11:07:12.383Z,1.20
2019-03-04T11:08:12.358Z,1.10
2019-03-04T11:09:12.331Z,0.90
2019-03-04T11:10:12.307Z,1.50
2019-03-04T11:11:12.280Z,1.10
2019-03-04T11:12:14.097Z,1.00
2019-03-04T11:13:12.227Z,1.40
2019-03-04T11:14:12.202Z,1.00
2019-03-04T11:15:12.174Z,1.10
2019-03-04T11:16:12.148Z,1.10
2019-03-04T11:17:12.125Z,1.10
2019-03-04T11:18:12.100Z,0.90
2019-03-04T11:19:12.074Z,1.10
2019-03-04T11:20:12.048Z,1.00
2019-03-04T11:21:12.024Z,1.10
2019-03-04T11:22:11.998Z,1.10
2019-03-04T11:23:11.973Z,0.80
2019-03-04T11:24:11.950Z,1.00
2019-03-04T11:25:11.925Z,1.30
2019-03-04T11:26:11.900Z,0.90
2019-03-04T11:27:11.875Z,1.00
2019-03-04T11:28:11.852Z,1.00
2019-03-04T11:29:13.353Z,1.30
2019-03-04T11:30:11.804Z,1.40
2019-03-04T11:31:11.778Z,0.90
2019-03-04T11:32:11.755Z,1.50
2019-03-04T11:33:11.733Z,1.20
2019-03-04T11:34:11.707Z,1.00
2019-03-04T11:35:11.683Z,1.30
2019-03-04T11:36:11.659Z,1.40
2019-03-04T11:37:11.637Z,1.20
2019-03-04T11:38:11.659Z,1.50
2019-03-04T11:39:11.589Z,1.10
2019-03-04T11:40:11.561Z,1.40
2019-03-04T11:41:11.538Z,1.30
2019-03-04T11:42:11.514Z,1.30
2019-03-04T11:43:11.490Z,1.40
2019-03-04T11:44:11.467Z,1.30
2019-03-04T11:45:11.444Z,1.30
2019-03-04T11:46:11.418Z,1.40
2019-03-04T11:47:11.396Z,1.40
2019-03-04T11:48:11.369Z,1.20
2019-03-04T11:49:11.345Z,1.30
2019-03-04T11:50:11.322Z,1.50
2019-03-04T11:51:11.296Z,1.20
2019-03-04T11:52:11.273Z,1.40
2019-03-04T11:53:11.250Z,1.30
2019-03-04T11:54:11.226Z,1.40
2019-03-04T11:55:11.201Z,1.40
2019-03-04T11:56:11.178Z,1.20
2019-03-04T11:57:11.155Z,1.40
2019-03-04T11:58:11.131Z,1.20
2019-03-04T11:59:11.107Z,1.40
2019-03-04T12:00:11.086Z,1.30
2019-03-04T12:01:11.062Z,1.50
2019-03-04T12:02:11.038Z,1.00
2019-03-04T12:03:11.014Z,1.20
2019-03-04T12:04:10.989Z,1.50
2019-03-04T12:05:10.965Z,1.20
2019-03-04T12:06:10.942Z,1.30
2019-03-04T12:07:10.918Z,0.90
2019-03-04T12:08:10.895Z,1.20
2019-03-04T12:09:10.870Z,1.30
2019-03-04T12:10:10.846Z,1.60
2019-03-04T12:11:10.820Z,1.10
2019-03-04T12:12:10.796Z,1.50
2019-03-04T12:13:10.772Z,1.30
2019-03-04T12:14:10.750Z,1.30
2019-03-04T12:15:10.723Z,1.40
2019-03-04T12:16:10.700Z,1.40
2019-03-04T12:17:10.676Z,1.40
2019-03-04T12:18:10.652Z,1.10
2019-03-04T12:19:10.628Z,1.20
2019-03-04T12:20:10.603Z,1.00
2019-03-04T12:21:10.580Z,1.30
2019-03-04T12:22:10.559Z,1.30
2019-03-04T12:23:10.533Z,1.10
2019-03-04T12:24:10.509Z,0.90
2019-03-04T12:25:10.485Z,1.10
2019-03-04T12:26:10.461Z,1.30
2019-03-04T12:27:10.439Z,1.10
2019-03-04T12:28:10.417Z,1.20
2019-03-04T12:29:10.392Z,0.90
2019-03-04T12:30:10.369Z,1.00
2019-03-04T12:31:10.345Z,1.00
2019-03-04T12:32:10.327Z,1.20
2019-03-04T12:33:10.296Z,1.10
2019-03-04T12:34:10.277Z,1.50
2019-03-04T12:35:10.253Z,0.90
2019-03-04T12:36:10.227Z,0.90
2019-03-04T12:37:10.205Z,1.10
2019-03-04T12:38:10.181Z,1.30
2019-03-04T12:39:10.158Z,1.20
2019-03-04T12:40:10.133Z,1.10
2019-03-04T12:41:10.111Z,1.30
2019-03-04T12:42:10.088Z,1.00
2019-03-04T12:43:10.063Z,1.20
2019-03-04T12:44:10.039Z,0.90
2019-03-04T12:45:10.015Z,1.20
2019-03-04T12:46:09.993Z,1.20
2019-03-04T12:47:09.969Z,1.20
2019-03-04T12:48:09.944Z,1.10
2019-03-04T12:49:09.921Z,1.00
2019-03-04T12:50:09.898Z,1.00
2019-03-04T12:51:09.877Z,1.30
2019-03-04T12:52:09.851Z,1.30
2019-03-04T12:53:09.830Z,0.80
2019-03-04T12:54:09.807Z,1.20
2019-03-04T12:55:09.780Z,1.10
2019-03-04T12:56:09.758Z,0.90
2019-03-04T12:57:09.736Z,1.30
2019-03-04T12:58:09.712Z,1.20
2019-03-04T12:59:09.688Z,1.00
2019-03-04T13:00:09.664Z,0.80
2019-03-04T13:01:09.639Z,1.00
2019-03-04T13:02:09.615Z,1.20
2019-03-04T13:03:09.590Z,1.40
2019-03-04T13:04:09.567Z,1.50
2019-03-04T13:05:09.544Z,1.40
2019-03-04T13:06:09.517Z,1.40
2019-03-04T13:07:09.490Z,1.80
2019-03-04T13:08:09.467Z,1.60
2019-03-04T13:09:14.539Z,1.50
2019-03-04T13:10:09.418Z,1.90
2019-03-04T13:11:09.389Z,2.00
2019-03-04T13:12:09.382Z,3.50
2019-03-04T13:13:09.341Z,2.20
2019-03-04T13:14:09.315Z,1.60
2019-03-04T13:15:09.289Z,1.40
2019-03-04T13:16:09.264Z,1.80
2019-03-04T13:17:09.241Z,2.00